sensor_id;sensor_type;location;lat;lon;timestamp;P1;durP1;ratioP1;P2;durP2;ratioP2
1703;SDS011;849;48.780;9.216;2023-03-01T00:01:50;37.40;;;1.30;;
1703;SDS011;849;48.780;9.216;2023-03-01T00:04:15;36.87;;;1.30;;
1703;SDS011;849;48.780;9.216;2023-03-01T00:06:44;37.50;;;1.40;;
1703;SDS011;849;48.780;9.216;2023-03-01T00:09:13;37.33;;;1.30;;
1703;SDS011;849;48.780;9.216;2023-03-01T00:11:40;37.47;;;1.30;;
1703;SDS011;849;48.780;9.216;2023-03-01T00:14:06;37.23;;;1.20;;
1703;SDS011;849;48.780;9.216;2023-03-01T00:16:33;37.37;;;1.30;;
1703;SDS011;849;48.780;9.216;2023-03-01T00:19:01;37.47;;;1.30;;
1703;SDS011;849;48.780;9.216;2023-03-01T00:21:27;36.97;;;1.27;;
1703;SDS011;849;48.780;9.216;2023-03-01T00:23:53;37.33;;;1.20;;
1703;SDS011;849;48.780;9.216;2023-03-01T00:26:21;37.43;;;1.30;;
1703;SDS011;849;48.780;9.216;2023-03-01T00:28:47;37.47;;;1.30;;
1703;SDS011;849;48.780;9.216;2023-03-01T00:31:15;37.27;;;1.23;;
1703;SDS011;849;48.780;9.216;2023-03-01T00:33:43;37.33;;;1.30;;
1703;SDS011;849;48.780;9.216;2023-03-01T00:36:10;37.37;;;1.30;;
1703;SDS011;849;48.780;9.216;2023-03-01T00:38:40;37.23;;;1.20;;
1703;SDS011;849;48.780;9.216;2023-03-01T00:41:12;37.37;;;1.20;;
1703;SDS011;849;48.780;9.216;2023-03-01T00:43:39;37.37;;;1.20;;
1703;SDS011;849;48.780;9.216;2023-03-01T00:46:09;37.33;;;1.20;;
1703;SDS011;849;48.780;9.216;2023-03-01T00:48:36;37.47;;;1.20;;
1703;SDS011;849;48.780;9.216;2023-03-01T00:53:58;37.37;;;1.30;;
1703;SDS011;849;48.780;9.216;2023-03-01T00:56:25;37.43;;;1.37;;
1703;SDS011;849;48.780;9.216;2023-03-01T00:58:52;37.47;;;1.30;;
1703;SDS011;849;48.780;9.216;2023-03-01T01:01:18;37.47;;;1.20;;
1703;SDS011;849;48.780;9.216;2023-03-01T01:03:48;37.10;;;1.30;;
1703;SDS011;849;48.780;9.216;2023-03-01T01:06:24;37.33;;;1.27;;
1703;SDS011;849;48.780;9.216;2023-03-01T01:08:52;37.27;;;1.30;;
1703;SDS011;849;48.780;9.216;2023-03-01T01:11:20;37.43;;;1.30;;
1703;SDS011;849;48.780;9.216;2023-03-01T01:13:47;37.40;;;1.40;;
1703;SDS011;849;48.780;9.216;2023-03-01T01:16:14;37.37;;;1.20;;
1703;SDS011;849;48.780;9.216;2023-03-01T01:18:40;37.60;;;1.30;;
1703;SDS011;849;48.780;9.216;2023-03-01T01:21:07;37.43;;;1.30;;
1703;SDS011;849;48.780;9.216;2023-03-01T01:23:35;37.10;;;1.27;;
1703;SDS011;849;48.780;9.216;2023-03-01T01:26:15;37.17;;;1.30;;
1703;SDS011;849;48.780;9.216;2023-03-01T01:28:46;37.37;;;1.20;;
1703;SDS011;849;48.780;9.216;2023-03-01T01:31:12;37.67;;;1.50;;
1703;SDS011;849;48.780;9.216;2023-03-01T01:33:38;37.27;;;1.30;;
1703;SDS011;849;48.780;9.216;2023-03-01T01:36:04;37.43;;;1.40;;
1703;SDS011;849;48.780;9.216;2023-03-01T01:38:30;37.47;;;1.30;;
1703;SDS011;849;48.780;9.216;2023-03-01T01:40:56;37.57;;;1.43;;
1703;SDS011;849;48.780;9.216;2023-03-01T01:43:33;37.47;;;1.30;;
1703;SDS011;849;48.780;9.216;2023-03-01T01:46:02;37.53;;;1.30;;
1703;SDS011;849;48.780;9.216;2023-03-01T01:48:39;37.47;;;1.33;;
1703;SDS011;849;48.780;9.216;2023-03-01T01:51:13;37.40;;;1.40;;
1703;SDS011;849;48.780;9.216;2023-03-01T01:53:41;37.33;;;1.23;;
1703;SDS011;849;48.780;9.216;2023-03-01T01:56:09;37.37;;;1.20;;
1703;SDS011;849;48.780;9.216;2023-03-01T01:58:37;37.47;;;1.30;;
1703;SDS011;849;48.780;9.216;2023-03-01T02:01:05;37.43;;;1.30;;
1703;SDS011;849;48.780;9.216;2023-03-01T02:03:31;37.10;;;1.40;;
1703;SDS011;849;48.780;9.216;2023-03-01T02:08:53;37.33;;;1.20;;
1703;SDS011;849;48.780;9.216;2023-03-01T02:11:31;37.43;;;1.30;;
1703;SDS011;849;48.780;9.216;2023-03-01T02:13:58;37.37;;;1.30;;
1703;SDS011;849;48.780;9.216;2023-03-01T02:16:25;37.47;;;1.30;;
1703;SDS011;849;48.780;9.216;2023-03-01T02:18:51;37.33;;;1.40;;
1703;SDS011;849;48.780;9.216;2023-03-01T02:24:30;37.37;;;1.20;;
1703;SDS011;849;48.780;9.216;2023-03-01T02:27:05;37.27;;;1.40;;
1703;SDS011;849;48.780;9.216;2023-03-01T02:29:31;37.43;;;1.40;;
1703;SDS011;849;48.780;9.216;2023-03-01T02:31:57;37.37;;;1.30;;
1703;SDS011;849;48.780;9.216;2023-03-01T02:34:26;37.23;;;1.27;;
1703;SDS011;849;48.780;9.216;2023-03-01T02:36:59;37.00;;;1.40;;
1703;SDS011;849;48.780;9.216;2023-03-01T02:39:33;37.27;;;1.20;;
1703;SDS011;849;48.780;9.216;2023-03-01T02:42:07;37.23;;;1.40;;
1703;SDS011;849;48.780;9.216;2023-03-01T02:44:37;37.33;;;1.30;;
1703;SDS011;849;48.780;9.216;2023-03-01T02:47:03;37.03;;;1.20;;
1703;SDS011;849;48.780;9.216;2023-03-01T02:49:30;37.27;;;1.20;;
1703;SDS011;849;48.780;9.216;2023-03-01T02:54:57;37.33;;;1.27;;
1703;SDS011;849;48.780;9.216;2023-03-01T02:57:28;37.13;;;1.30;;
1703;SDS011;849;48.780;9.216;2023-03-01T02:59:55;37.37;;;1.30;;
1703;SDS011;849;48.780;9.216;2023-03-01T03:02:25;37.43;;;1.47;;
1703;SDS011;849;48.780;9.216;2023-03-01T03:05:03;37.37;;;1.30;;
1703;SDS011;849;48.780;9.216;2023-03-01T03:07:35;37.23;;;1.30;;
1703;SDS011;849;48.780;9.216;2023-03-01T03:10:04;37.37;;;1.30;;
1703;SDS011;849;48.780;9.216;2023-03-01T03:12:31;37.33;;;1.23;;
1703;SDS011;849;48.780;9.216;2023-03-01T03:14:57;37.37;;;1.27;;
1703;SDS011;849;48.780;9.216;2023-03-01T03:17:22;37.23;;;1.30;;
1703;SDS011;849;48.780;9.216;2023-03-01T03:19:48;37.37;;;1.30;;
1703;SDS011;849;48.780;9.216;2023-03-01T03:22:14;37.27;;;1.30;;
1703;SDS011;849;48.780;9.216;2023-03-01T03:24:39;37.20;;;1.27;;
1703;SDS011;849;48.780;9.216;2023-03-01T03:27:05;37.33;;;1.27;;
1703;SDS011;849;48.780;9.216;2023-03-01T03:29:32;37.23;;;1.30;;
1703;SDS011;849;48.780;9.216;2023-03-01T03:31:57;37.43;;;1.40;;
1703;SDS011;849;48.780;9.216;2023-03-01T03:34:23;37.33;;;1.30;;
1703;SDS011;849;48.780;9.216;2023-03-01T03:36:53;37.27;;;1.30;;
1703;SDS011;849;48.780;9.216;2023-03-01T03:39:25;37.10;;;1.40;;
1703;SDS011;849;48.780;9.216;2023-03-01T03:41:52;37.37;;;1.40;;
1703;SDS011;849;48.780;9.216;2023-03-01T03:44:19;37.17;;;1.30;;
1703;SDS011;849;48.780;9.216;2023-03-01T03:46:45;37.53;;;1.30;;
1703;SDS011;849;48.780;9.216;2023-03-01T03:49:11;37.20;;;1.30;;
1703;SDS011;849;48.780;9.216;2023-03-01T03:51:37;37.50;;;1.30;;
1703;SDS011;849;48.780;9.216;2023-03-01T03:54:02;37.27;;;1.40;;
1703;SDS011;849;48.780;9.216;2023-03-01T03:56:28;37.17;;;1.30;;
1703;SDS011;849;48.780;9.216;2023-03-01T03:58:54;37.03;;;1.40;;
1703;SDS011;849;48.780;9.216;2023-03-01T04:01:19;37.27;;;1.43;;
1703;SDS011;849;48.780;9.216;2023-03-01T04:03:45;37.47;;;1.37;;
1703;SDS011;849;48.780;9.216;2023-03-01T04:06:19;37.10;;;1.30;;
1703;SDS011;849;48.780;9.216;2023-03-01T04:08:45;37.23;;;1.23;;
1703;SDS011;849;48.780;9.216;2023-03-01T04:11:10;37.33;;;1.40;;
1703;SDS011;849;48.780;9.216;2023-03-01T04:13:52;37.17;;;1.33;;
1703;SDS011;849;48.780;9.216;2023-03-01T04:16:19;37.27;;;1.30;;
1703;SDS011;849;48.780;9.216;2023-03-01T04:18:45;37.40;;;1.40;;
1703;SDS011;849;48.780;9.216;2023-03-01T04:21:11;37.07;;;1.33;;
1703;SDS011;849;48.780;9.216;2023-03-01T04:23:37;37.47;;;1.27;;
1703;SDS011;849;48.780;9.216;2023-03-01T04:26:03;37.47;;;1.40;;
1703;SDS011;849;48.780;9.216;2023-03-01T04:28:30;37.47;;;1.40;;
1703;SDS011;849;48.780;9.216;2023-03-01T04:31:01;37.07;;;1.40;;
1703;SDS011;849;48.780;9.216;2023-03-01T04:33:43;37.43;;;1.30;;
1703;SDS011;849;48.780;9.216;2023-03-01T04:36:14;37.23;;;1.20;;
1703;SDS011;849;48.780;9.216;2023-03-01T04:38:42;37.23;;;1.30;;
1703;SDS011;849;48.780;9.216;2023-03-01T04:41:12;37.10;;;1.27;;
1703;SDS011;849;48.780;9.216;2023-03-01T04:43:39;36.80;;;1.27;;
1703;SDS011;849;48.780;9.216;2023-03-01T04:46:05;37.47;;;1.37;;
1703;SDS011;849;48.780;9.216;2023-03-01T04:48:34;37.47;;;1.30;;
1703;SDS011;849;48.780;9.216;2023-03-01T04:51:01;37.00;;;1.20;;
1703;SDS011;849;48.780;9.216;2023-03-01T04:53:27;37.10;;;1.30;;
1703;SDS011;849;48.780;9.216;2023-03-01T04:55:56;37.43;;;1.30;;
1703;SDS011;849;48.780;9.216;2023-03-01T04:58:23;37.43;;;1.40;;
1703;SDS011;849;48.780;9.216;2023-03-01T05:00:49;37.37;;;1.30;;
1703;SDS011;849;48.780;9.216;2023-03-01T05:03:14;37.27;;;1.20;;
1703;SDS011;849;48.780;9.216;2023-03-01T05:05:43;37.53;;;1.30;;
1703;SDS011;849;48.780;9.216;2023-03-01T05:08:10;37.53;;;1.40;;
1703;SDS011;849;48.780;9.216;2023-03-01T05:10:43;37.27;;;1.20;;
1703;SDS011;849;48.780;9.216;2023-03-01T05:13:11;37.03;;;1.30;;
1703;SDS011;849;48.780;9.216;2023-03-01T05:15:47;37.27;;;1.30;;
1703;SDS011;849;48.780;9.216;2023-03-01T05:18:14;37.23;;;1.60;;
1703;SDS011;849;48.780;9.216;2023-03-01T05:20:40;37.50;;;1.20;;
1703;SDS011;849;48.780;9.216;2023-03-01T05:23:06;37.03;;;1.30;;
1703;SDS011;849;48.780;9.216;2023-03-01T05:25:32;37.23;;;1.30;;
1703;SDS011;849;48.780;9.216;2023-03-01T05:27:59;37.47;;;1.30;;
1703;SDS011;849;48.780;9.216;2023-03-01T05:30:29;36.60;;;1.20;;
1703;SDS011;849;48.780;9.216;2023-03-01T05:32:56;37.13;;;1.30;;
1703;SDS011;849;48.780;9.216;2023-03-01T05:35:22;37.33;;;1.20;;
1703;SDS011;849;48.780;9.216;2023-03-01T05:37:48;37.27;;;1.30;;
1703;SDS011;849;48.780;9.216;2023-03-01T05:40:15;37.37;;;1.30;;
1703;SDS011;849;48.780;9.216;2023-03-01T05:42:47;36.90;;;1.30;;
1703;SDS011;849;48.780;9.216;2023-03-01T05:45:15;37.27;;;1.40;;
1703;SDS011;849;48.780;9.216;2023-03-01T05:47:43;37.47;;;1.30;;
1703;SDS011;849;48.780;9.216;2023-03-01T05:50:13;37.23;;;1.30;;
1703;SDS011;849;48.780;9.216;2023-03-01T05:52:51;37.27;;;1.20;;
1703;SDS011;849;48.780;9.216;2023-03-01T05:55:38;36.97;;;1.30;;
1703;SDS011;849;48.780;9.216;2023-03-01T05:58:05;37.23;;;1.20;;
1703;SDS011;849;48.780;9.216;2023-03-01T06:00:34;37.37;;;1.30;;
1703;SDS011;849;48.780;9.216;2023-03-01T06:03:00;37.37;;;1.27;;
1703;SDS011;849;48.780;9.216;2023-03-01T06:05:27;37.37;;;1.20;;
1703;SDS011;849;48.780;9.216;2023-03-01T06:07:53;37.47;;;1.20;;
1703;SDS011;849;48.780;9.216;2023-03-01T06:10:19;36.87;;;1.20;;
1703;SDS011;849;48.780;9.216;2023-03-01T06:12:46;37.00;;;1.30;;
1703;SDS011;849;48.780;9.216;2023-03-01T06:15:12;37.27;;;1.20;;
1703;SDS011;849;48.780;9.216;2023-03-01T06:17:40;37.07;;;1.33;;
1703;SDS011;849;48.780;9.216;2023-03-01T06:20:09;37.27;;;1.20;;
1703;SDS011;849;48.780;9.216;2023-03-01T06:22:43;37.17;;;1.20;;
1703;SDS011;849;48.780;9.216;2023-03-01T06:25:09;37.27;;;1.20;;
1703;SDS011;849;48.780;9.216;2023-03-01T06:27:35;37.10;;;1.20;;
1703;SDS011;849;48.780;9.216;2023-03-01T06:30:01;37.37;;;1.30;;
1703;SDS011;849;48.780;9.216;2023-03-01T06:32:28;37.27;;;1.27;;
1703;SDS011;849;48.780;9.216;2023-03-01T06:34:53;37.27;;;1.27;;
1703;SDS011;849;48.780;9.216;2023-03-01T06:37:19;37.43;;;1.30;;
1703;SDS011;849;48.780;9.216;2023-03-01T06:39:44;37.37;;;1.30;;
1703;SDS011;849;48.780;9.216;2023-03-01T06:42:10;36.90;;;1.23;;
1703;SDS011;849;48.780;9.216;2023-03-01T06:44:36;37.37;;;1.40;;
1703;SDS011;849;48.780;9.216;2023-03-01T06:47:02;37.00;;;1.20;;
1703;SDS011;849;48.780;9.216;2023-03-01T06:49:28;37.03;;;1.43;;
1703;SDS011;849;48.780;9.216;2023-03-01T06:51:55;37.13;;;1.30;;
1703;SDS011;849;48.780;9.216;2023-03-01T06:54:21;37.33;;;1.30;;
1703;SDS011;849;48.780;9.216;2023-03-01T06:56:49;37.27;;;1.30;;
1703;SDS011;849;48.780;9.216;2023-03-01T06:59:16;37.27;;;1.30;;
1703;SDS011;849;48.780;9.216;2023-03-01T07:01:42;37.37;;;1.30;;
1703;SDS011;849;48.780;9.216;2023-03-01T07:04:08;37.43;;;1.20;;
1703;SDS011;849;48.780;9.216;2023-03-01T07:06:35;37.33;;;1.30;;
1703;SDS011;849;48.780;9.216;2023-03-01T07:09:00;37.27;;;1.20;;
1703;SDS011;849;48.780;9.216;2023-03-01T07:11:26;37.37;;;1.40;;
1703;SDS011;849;48.780;9.216;2023-03-01T07:13:52;37.27;;;1.40;;
1703;SDS011;849;48.780;9.216;2023-03-01T07:16:17;37.33;;;1.40;;
1703;SDS011;849;48.780;9.216;2023-03-01T07:18:45;37.37;;;1.20;;
1703;SDS011;849;48.780;9.216;2023-03-01T07:21:11;37.37;;;1.30;;
1703;SDS011;849;48.780;9.216;2023-03-01T07:23:38;37.37;;;1.23;;
1703;SDS011;849;48.780;9.216;2023-03-01T07:26:04;36.97;;;1.20;;
1703;SDS011;849;48.780;9.216;2023-03-01T07:28:30;37.40;;;1.20;;
1703;SDS011;849;48.780;9.216;2023-03-01T07:31:00;37.33;;;1.30;;
1703;SDS011;849;48.780;9.216;2023-03-01T07:33:29;37.27;;;1.30;;
1703;SDS011;849;48.780;9.216;2023-03-01T07:35:59;37.17;;;1.30;;
1703;SDS011;849;48.780;9.216;2023-03-01T07:38:26;37.27;;;1.30;;
1703;SDS011;849;48.780;9.216;2023-03-01T07:40:53;37.03;;;1.33;;
1703;SDS011;849;48.780;9.216;2023-03-01T07:43:18;37.17;;;1.30;;
1703;SDS011;849;48.780;9.216;2023-03-01T07:45:45;36.70;;;1.30;;
1703;SDS011;849;48.780;9.216;2023-03-01T07:48:11;37.33;;;1.40;;
1703;SDS011;849;48.780;9.216;2023-03-01T07:50:37;37.27;;;1.40;;
1703;SDS011;849;48.780;9.216;2023-03-01T07:53:02;37.33;;;1.47;;
1703;SDS011;849;48.780;9.216;2023-03-01T07:55:28;37.27;;;1.30;;
1703;SDS011;849;48.780;9.216;2023-03-01T07:57:53;37.40;;;1.20;;
1703;SDS011;849;48.780;9.216;2023-03-01T08:00:19;37.37;;;1.27;;
1703;SDS011;849;48.780;9.216;2023-03-01T08:02:48;37.07;;;1.50;;
1703;SDS011;849;48.780;9.216;2023-03-01T08:05:14;37.23;;;1.30;;
1703;SDS011;849;48.780;9.216;2023-03-01T08:07:40;37.33;;;1.40;;
1703;SDS011;849;48.780;9.216;2023-03-01T08:10:06;37.33;;;1.23;;
1703;SDS011;849;48.780;9.216;2023-03-01T08:12:32;37.27;;;1.30;;
1703;SDS011;849;48.780;9.216;2023-03-01T08:14:58;36.97;;;1.30;;
1703;SDS011;849;48.780;9.216;2023-03-01T08:17:24;37.33;;;1.30;;
1703;SDS011;849;48.780;9.216;2023-03-01T08:19:50;37.17;;;1.30;;
1703;SDS011;849;48.780;9.216;2023-03-01T08:22:15;37.27;;;1.40;;
1703;SDS011;849;48.780;9.216;2023-03-01T08:24:41;37.23;;;1.30;;
1703;SDS011;849;48.780;9.216;2023-03-01T08:27:07;37.03;;;1.40;;
1703;SDS011;849;48.780;9.216;2023-03-01T08:29:33;37.17;;;1.50;;
1703;SDS011;849;48.780;9.216;2023-03-01T08:31:59;37.40;;;1.30;;
1703;SDS011;849;48.780;9.216;2023-03-01T08:34:25;37.33;;;1.20;;
1703;SDS011;849;48.780;9.216;2023-03-01T08:36:50;37.13;;;1.30;;
1703;SDS011;849;48.780;9.216;2023-03-01T08:39:17;37.17;;;1.30;;
1703;SDS011;849;48.780;9.216;2023-03-01T08:41:45;37.50;;;1.30;;
1703;SDS011;849;48.780;9.216;2023-03-01T08:44:12;37.33;;;1.30;;
1703;SDS011;849;48.780;9.216;2023-03-01T08:46:39;37.57;;;1.40;;
1703;SDS011;849;48.780;9.216;2023-03-01T08:49:11;37.10;;;1.60;;
1703;SDS011;849;48.780;9.216;2023-03-01T08:51:38;37.37;;;1.43;;
1703;SDS011;849;48.780;9.216;2023-03-01T08:54:04;37.53;;;1.30;;
1703;SDS011;849;48.780;9.216;2023-03-01T08:56:32;37.43;;;1.40;;
1703;SDS011;849;48.780;9.216;2023-03-01T08:58:58;37.37;;;1.40;;
1703;SDS011;849;48.780;9.216;2023-03-01T09:01:23;37.33;;;1.30;;
1703;SDS011;849;48.780;9.216;2023-03-01T09:03:49;37.47;;;1.40;;
1703;SDS011;849;48.780;9.216;2023-03-01T09:06:15;37.30;;;1.40;;
1703;SDS011;849;48.780;9.216;2023-03-01T09:08:42;37.37;;;1.30;;
1703;SDS011;849;48.780;9.216;2023-03-01T09:11:11;37.37;;;1.30;;
1703;SDS011;849;48.780;9.216;2023-03-01T09:13:40;37.37;;;1.30;;
1703;SDS011;849;48.780;9.216;2023-03-01T09:16:06;37.17;;;1.30;;
1703;SDS011;849;48.780;9.216;2023-03-01T09:18:33;37.40;;;1.30;;
1703;SDS011;849;48.780;9.216;2023-03-01T09:21:01;37.37;;;1.33;;
1703;SDS011;849;48.780;9.216;2023-03-01T09:23:39;37.00;;;1.30;;
1703;SDS011;849;48.780;9.216;2023-03-01T09:26:07;37.37;;;1.43;;
1703;SDS011;849;48.780;9.216;2023-03-01T09:28:34;37.43;;;1.47;;
1703;SDS011;849;48.780;9.216;2023-03-01T09:31:01;37.07;;;1.20;;
1703;SDS011;849;48.780;9.216;2023-03-01T09:33:31;37.17;;;1.30;;
1703;SDS011;849;48.780;9.216;2023-03-01T09:35:58;37.07;;;1.40;;
1703;SDS011;849;48.780;9.216;2023-03-01T09:38:24;37.47;;;1.40;;
1703;SDS011;849;48.780;9.216;2023-03-01T09:40:50;37.37;;;1.33;;
1703;SDS011;849;48.780;9.216;2023-03-01T09:45:52;37.33;;;1.53;;
1703;SDS011;849;48.780;9.216;2023-03-01T09:48:21;36.67;;;1.23;;
1703;SDS011;849;48.780;9.216;2023-03-01T09:50:50;37.43;;;1.30;;
1703;SDS011;849;48.780;9.216;2023-03-01T09:53:18;37.47;;;1.30;;
1703;SDS011;849;48.780;9.216;2023-03-01T09:55:58;37.47;;;1.40;;
1703;SDS011;849;48.780;9.216;2023-03-01T09:58:35;37.60;;;1.40;;
1703;SDS011;849;48.780;9.216;2023-03-01T10:06:39;36.90;;;1.20;;
1703;SDS011;849;48.780;9.216;2023-03-01T10:09:11;37.23;;;1.30;;
1703;SDS011;849;48.780;9.216;2023-03-01T10:11:45;37.57;;;1.30;;
1703;SDS011;849;48.780;9.216;2023-03-01T10:14:29;37.43;;;1.30;;
1703;SDS011;849;48.780;9.216;2023-03-01T10:20:17;37.57;;;1.30;;
1703;SDS011;849;48.780;9.216;2023-03-01T10:22:47;37.37;;;1.20;;
1703;SDS011;849;48.780;9.216;2023-03-01T10:30:52;37.13;;;1.30;;
1703;SDS011;849;48.780;9.216;2023-03-01T10:33:22;37.43;;;1.30;;
1703;SDS011;849;48.780;9.216;2023-03-01T10:35:51;37.47;;;1.50;;
1703;SDS011;849;48.780;9.216;2023-03-01T10:38:17;37.00;;;1.40;;
1703;SDS011;849;48.780;9.216;2023-03-01T10:40:55;37.43;;;1.30;;
1703;SDS011;849;48.780;9.216;2023-03-01T10:43:23;37.47;;;1.20;;
1703;SDS011;849;48.780;9.216;2023-03-01T10:45:50;37.17;;;1.23;;
1703;SDS011;849;48.780;9.216;2023-03-01T10:48:17;37.57;;;1.30;;
1703;SDS011;849;48.780;9.216;2023-03-01T10:51:12;37.27;;;1.50;;
1703;SDS011;849;48.780;9.216;2023-03-01T10:53:43;37.37;;;1.30;;
1703;SDS011;849;48.780;9.216;2023-03-01T10:56:14;37.53;;;1.20;;
1703;SDS011;849;48.780;9.216;2023-03-01T10:58:58;37.63;;;1.17;;
1703;SDS011;849;48.780;9.216;2023-03-01T11:01:25;37.73;;;1.40;;
1703;SDS011;849;48.780;9.216;2023-03-01T11:06:28;37.53;;;1.20;;
1703;SDS011;849;48.780;9.216;2023-03-01T11:08:54;37.63;;;1.27;;
1703;SDS011;849;48.780;9.216;2023-03-01T11:11:30;37.63;;;1.30;;
1703;SDS011;849;48.780;9.216;2023-03-01T11:14:04;37.57;;;1.20;;
1703;SDS011;849;48.780;9.216;2023-03-01T11:16:38;37.57;;;1.47;;
1703;SDS011;849;48.780;9.216;2023-03-01T11:24:10;37.67;;;1.30;;
1703;SDS011;849;48.780;9.216;2023-03-01T11:26:42;37.57;;;1.23;;
1703;SDS011;849;48.780;9.216;2023-03-01T11:29:24;37.43;;;1.40;;
1703;SDS011;849;48.780;9.216;2023-03-01T11:31:57;37.37;;;1.40;;
1703;SDS011;849;48.780;9.216;2023-03-01T11:40:04;37.37;;;1.30;;
1703;SDS011;849;48.780;9.216;2023-03-01T11:50:56;37.77;;;1.30;;
1703;SDS011;849;48.780;9.216;2023-03-01T11:56:06;37.83;;;1.40;;
1703;SDS011;849;48.780;9.216;2023-03-01T12:03:49;37.57;;;1.30;;
1703;SDS011;849;48.780;9.216;2023-03-01T12:06:21;37.67;;;1.33;;
1703;SDS011;849;48.780;9.216;2023-03-01T12:26:26;37.73;;;1.23;;
1703;SDS011;849;48.780;9.216;2023-03-01T12:29:02;37.70;;;1.20;;
1703;SDS011;849;48.780;9.216;2023-03-01T12:31:44;37.77;;;1.40;;
1703;SDS011;849;48.780;9.216;2023-03-01T12:34:42;37.93;;;1.50;;
1703;SDS011;849;48.780;9.216;2023-03-01T12:51:16;37.87;;;1.30;;
1703;SDS011;849;48.780;9.216;2023-03-01T12:53:49;37.73;;;1.30;;
1703;SDS011;849;48.780;9.216;2023-03-01T12:56:22;37.50;;;1.30;;
1703;SDS011;849;48.780;9.216;2023-03-01T13:07:11;38.03;;;1.60;;
1703;SDS011;849;48.780;9.216;2023-03-01T13:09:19;38.03;;;1.30;;
1703;SDS011;849;48.780;9.216;2023-03-01T13:11:52;38.07;;;1.30;;
1703;SDS011;849;48.780;9.216;2023-03-01T13:16:52;37.97;;;1.33;;
1703;SDS011;849;48.780;9.216;2023-03-01T13:19:23;37.87;;;1.30;;
1703;SDS011;849;48.780;9.216;2023-03-01T13:21:52;37.57;;;1.30;;
1703;SDS011;849;48.780;9.216;2023-03-01T13:29:45;37.97;;;1.20;;
1703;SDS011;849;48.780;9.216;2023-03-01T13:32:26;37.87;;;1.30;;
1703;SDS011;849;48.780;9.216;2023-03-01T13:37:42;37.93;;;1.27;;
1703;SDS011;849;48.780;9.216;2023-03-01T13:42:46;37.97;;;1.30;;
1703;SDS011;849;48.780;9.216;2023-03-01T13:45:21;38.03;;;1.40;;
1703;SDS011;849;48.780;9.216;2023-03-01T13:47:54;38.03;;;1.40;;
1703;SDS011;849;48.780;9.216;2023-03-01T13:50:27;37.97;;;1.47;;
1703;SDS011;849;48.780;9.216;2023-03-01T13:52:59;38.03;;;1.50;;
1703;SDS011;849;48.780;9.216;2023-03-01T13:55:34;38.03;;;1.40;;
1703;SDS011;849;48.780;9.216;2023-03-01T13:58:21;38.03;;;1.23;;
1703;SDS011;849;48.780;9.216;2023-03-01T14:01:18;37.57;;;1.40;;
1703;SDS011;849;48.780;9.216;2023-03-01T14:03:47;37.93;;;1.30;;
1703;SDS011;849;48.780;9.216;2023-03-01T14:06:14;37.87;;;1.30;;
1703;SDS011;849;48.780;9.216;2023-03-01T14:08:43;37.90;;;1.20;;
1703;SDS011;849;48.780;9.216;2023-03-01T14:11:20;37.97;;;1.20;;
1703;SDS011;849;48.780;9.216;2023-03-01T14:14:18;37.87;;;1.30;;
1703;SDS011;849;48.780;9.216;2023-03-01T14:19:23;38.03;;;1.40;;
1703;SDS011;849;48.780;9.216;2023-03-01T14:22:12;37.97;;;1.30;;
1703;SDS011;849;48.780;9.216;2023-03-01T14:24:49;37.97;;;1.30;;
1703;SDS011;849;48.780;9.216;2023-03-01T14:27:26;37.77;;;1.23;;
1703;SDS011;849;48.780;9.216;2023-03-01T14:29:58;37.97;;;1.20;;
1703;SDS011;849;48.780;9.216;2023-03-01T14:32:26;37.93;;;1.23;;
1703;SDS011;849;48.780;9.216;2023-03-01T14:34:53;37.87;;;1.30;;
1703;SDS011;849;48.780;9.216;2023-03-01T14:37:24;37.93;;;1.30;;
1703;SDS011;849;48.780;9.216;2023-03-01T14:39:50;37.97;;;1.63;;
1703;SDS011;849;48.780;9.216;2023-03-01T14:42:16;38.03;;;1.30;;
1703;SDS011;849;48.780;9.216;2023-03-01T14:44:43;37.97;;;1.40;;
1703;SDS011;849;48.780;9.216;2023-03-01T14:47:12;38.07;;;1.50;;
1703;SDS011;849;48.780;9.216;2023-03-01T14:49:44;37.97;;;1.30;;
1703;SDS011;849;48.780;9.216;2023-03-01T14:52:17;38.00;;;1.30;;
1703;SDS011;849;48.780;9.216;2023-03-01T14:54:46;37.97;;;1.40;;
1703;SDS011;849;48.780;9.216;2023-03-01T14:57:16;37.87;;;1.33;;
1703;SDS011;849;48.780;9.216;2023-03-01T14:59:52;38.03;;;1.40;;
1703;SDS011;849;48.780;9.216;2023-03-01T15:02:24;38.03;;;1.40;;
1703;SDS011;849;48.780;9.216;2023-03-01T15:04:52;37.83;;;1.30;;
1703;SDS011;849;48.780;9.216;2023-03-01T15:07:22;37.87;;;1.20;;
1703;SDS011;849;48.780;9.216;2023-03-01T15:09:53;38.03;;;1.37;;
1703;SDS011;849;48.780;9.216;2023-03-01T15:14:54;37.87;;;1.30;;
1703;SDS011;849;48.780;9.216;2023-03-01T15:17:33;37.97;;;1.30;;
1703;SDS011;849;48.780;9.216;2023-03-01T15:20:03;38.03;;;1.33;;
1703;SDS011;849;48.780;9.216;2023-03-01T15:22:43;37.97;;;1.30;;
1703;SDS011;849;48.780;9.216;2023-03-01T15:25:20;37.83;;;1.20;;
1703;SDS011;849;48.780;9.216;2023-03-01T15:27:48;37.97;;;1.30;;
1703;SDS011;849;48.780;9.216;2023-03-01T15:30:34;38.07;;;1.60;;
1703;SDS011;849;48.780;9.216;2023-03-01T15:35:52;37.97;;;1.67;;
1703;SDS011;849;48.780;9.216;2023-03-01T15:40:52;37.93;;;1.30;;
1703;SDS011;849;48.780;9.216;2023-03-01T15:48:55;38.03;;;1.60;;
1703;SDS011;849;48.780;9.216;2023-03-01T15:51:27;37.87;;;1.20;;
1703;SDS011;849;48.780;9.216;2023-03-01T15:53:55;38.10;;;1.40;;
1703;SDS011;849;48.780;9.216;2023-03-01T15:56:23;37.97;;;1.40;;
1703;SDS011;849;48.780;9.216;2023-03-01T15:58:48;38.03;;;1.37;;
1703;SDS011;849;48.780;9.216;2023-03-01T16:01:17;38.03;;;1.50;;
1703;SDS011;849;48.780;9.216;2023-03-01T16:03:43;38.03;;;1.40;;
1703;SDS011;849;48.780;9.216;2023-03-01T16:06:09;37.97;;;1.40;;
1703;SDS011;849;48.780;9.216;2023-03-01T16:08:36;38.03;;;1.30;;
1703;SDS011;849;48.780;9.216;2023-03-01T16:11:03;37.93;;;1.30;;
1703;SDS011;849;48.780;9.216;2023-03-01T16:13:38;37.87;;;1.20;;
1703;SDS011;849;48.780;9.216;2023-03-01T16:16:04;37.93;;;1.47;;
1703;SDS011;849;48.780;9.216;2023-03-01T16:18:30;37.97;;;1.30;;
1703;SDS011;849;48.780;9.216;2023-03-01T16:20:55;37.93;;;1.50;;
1703;SDS011;849;48.780;9.216;2023-03-01T16:23:21;37.77;;;1.30;;
1703;SDS011;849;48.780;9.216;2023-03-01T16:25:50;37.93;;;1.47;;
1703;SDS011;849;48.780;9.216;2023-03-01T16:28:15;37.87;;;1.30;;
1703;SDS011;849;48.780;9.216;2023-03-01T16:30:45;37.87;;;1.40;;
1703;SDS011;849;48.780;9.216;2023-03-01T16:33:13;37.87;;;1.30;;
1703;SDS011;849;48.780;9.216;2023-03-01T16:35:39;37.97;;;1.40;;
1703;SDS011;849;48.780;9.216;2023-03-01T16:38:05;37.87;;;1.30;;
1703;SDS011;849;48.780;9.216;2023-03-01T16:40:34;37.77;;;1.33;;
1703;SDS011;849;48.780;9.216;2023-03-01T16:42:59;37.73;;;1.40;;
1703;SDS011;849;48.780;9.216;2023-03-01T16:45:27;37.97;;;1.40;;
1703;SDS011;849;48.780;9.216;2023-03-01T16:47:57;37.97;;;1.50;;
1703;SDS011;849;48.780;9.216;2023-03-01T16:50:23;37.87;;;1.30;;
1703;SDS011;849;48.780;9.216;2023-03-01T16:52:50;37.87;;;1.50;;
1703;SDS011;849;48.780;9.216;2023-03-01T16:55:16;37.80;;;1.27;;
1703;SDS011;849;48.780;9.216;2023-03-01T16:57:41;37.77;;;1.30;;
1703;SDS011;849;48.780;9.216;2023-03-01T17:00:07;37.77;;;1.20;;
1703;SDS011;849;48.780;9.216;2023-03-01T17:02:38;37.97;;;1.30;;
1703;SDS011;849;48.780;9.216;2023-03-01T17:05:04;37.93;;;1.30;;
1703;SDS011;849;48.780;9.216;2023-03-01T17:07:30;37.97;;;1.20;;
1703;SDS011;849;48.780;9.216;2023-03-01T17:09:58;38.07;;;1.20;;
1703;SDS011;849;48.780;9.216;2023-03-01T17:12:25;37.87;;;1.20;;
1703;SDS011;849;48.780;9.216;2023-03-01T17:14:51;37.87;;;1.13;;
1703;SDS011;849;48.780;9.216;2023-03-01T17:17:16;37.87;;;1.20;;
1703;SDS011;849;48.780;9.216;2023-03-01T17:19:42;37.93;;;1.20;;
1703;SDS011;849;48.780;9.216;2023-03-01T17:22:09;37.83;;;1.20;;
1703;SDS011;849;48.780;9.216;2023-03-01T17:24:36;37.93;;;1.27;;
1703;SDS011;849;48.780;9.216;2023-03-01T17:27:03;37.77;;;1.20;;
1703;SDS011;849;48.780;9.216;2023-03-01T17:29:29;37.73;;;1.20;;
1703;SDS011;849;48.780;9.216;2023-03-01T17:31:56;38.03;;;1.30;;
1703;SDS011;849;48.780;9.216;2023-03-01T17:34:22;37.93;;;1.20;;